createdAt,value
2018-05-14T00:00:15.929Z,96.10
2018-05-14T00:02:42.959Z,96.40
2018-05-14T00:05:09.206Z,95.70
2018-05-14T00:07:36.356Z,96.00
2018-05-14T00:10:02.587Z,95.80
2018-05-14T00:12:28.786Z,96.00
2018-05-14T00:14:56.738Z,96.10
2018-05-14T00:17:22.975Z,96.20
2018-05-14T00:19:49.231Z,96.70
2018-05-14T00:22:15.494Z,96.30
2018-05-14T00:24:41.760Z,96.50
2018-05-14T00:27:08.704Z,96.90
2018-05-14T00:29:35.689Z,96.90
2018-05-14T00:32:03.060Z,97.00
2018-05-14T00:34:30.458Z,97.10
2018-05-14T00:36:56.721Z,96.90
2018-05-14T00:39:23.693Z,97.30
2018-05-14T00:41:49.944Z,96.90
2018-05-14T00:44:16.188Z,96.90
2018-05-14T00:46:43.560Z,97.20
2018-05-14T00:49:10.581Z,97.10
2018-05-14T00:51:36.816Z,97.00
2018-05-14T00:54:03.473Z,96.90
2018-05-14T00:56:30.097Z,96.80
2018-05-14T00:58:56.730Z,96.80
2018-05-14T01:01:23.702Z,97.10
2018-05-14T01:03:49.965Z,97.10
2018-05-14T01:06:16.949Z,96.90
2018-05-14T01:08:43.629Z,96.80
2018-05-14T01:11:09.888Z,97.00
2018-05-14T01:13:36.133Z,97.10
2018-05-14T01:16:02.439Z,97.20
2018-05-14T01:18:28.699Z,96.20
2018-05-14T01:20:54.934Z,96.00
2018-05-14T01:23:21.173Z,95.30
2018-05-14T01:25:47.434Z,95.30
2018-05-14T01:28:13.748Z,95.60
2018-05-14T01:30:40.671Z,96.10
2018-05-14T01:33:07.306Z,95.00
2018-05-14T01:35:34.321Z,96.10
2018-05-14T01:38:00.554Z,95.00
2018-05-14T01:40:26.809Z,94.20
2018-05-14T01:42:53.549Z,94.50
2018-05-14T01:45:19.804Z,94.80
2018-05-14T01:47:46.765Z,95.20
2018-05-14T01:50:13.794Z,95.00
2018-05-14T01:52:40.046Z,94.00
2018-05-14T01:55:07.021Z,94.90
2018-05-14T01:57:34.006Z,94.70
2018-05-14T02:00:00.219Z,95.00
2018-05-14T02:02:27.194Z,95.60
2018-05-14T02:04:53.475Z,95.20
2018-05-14T02:07:19.764Z,95.90
2018-05-14T02:09:46.034Z,95.50
2018-05-14T02:12:12.300Z,95.50
2018-05-14T02:14:38.520Z,95.80
2018-05-14T02:17:05.496Z,95.80
2018-05-14T02:19:31.724Z,95.80
2018-05-14T02:21:58.714Z,96.40
2018-05-14T02:24:25.320Z,96.40
2018-05-14T02:26:51.559Z,96.40
2018-05-14T02:29:18.224Z,95.80
2018-05-14T02:31:44.805Z,95.40
2018-05-14T02:34:11.300Z,95.80
2018-05-14T02:36:37.539Z,95.60
2018-05-14T02:39:04.670Z,96.00
2018-05-14T02:41:30.861Z,95.80
2018-05-14T02:43:57.177Z,96.00
2018-05-14T02:46:23.419Z,95.80
2018-05-14T02:48:49.723Z,95.70
2018-05-14T02:51:15.961Z,96.10
2018-05-14T02:53:42.185Z,96.00
2018-05-14T02:56:08.390Z,96.00
2018-05-14T02:58:34.627Z,96.00
2018-05-14T03:01:00.935Z,96.40
2018-05-14T03:03:27.211Z,96.50
2018-05-14T03:05:54.220Z,96.60
2018-05-14T03:08:20.445Z,95.80
2018-05-14T03:10:47.821Z,95.80
2018-05-14T03:13:14.056Z,95.20
2018-05-14T03:15:40.322Z,95.70
2018-05-14T03:18:07.249Z,96.00
2018-05-14T03:20:34.260Z,95.70
2018-05-14T03:23:00.520Z,95.00
2018-05-14T03:25:26.802Z,94.50
2018-05-14T03:27:53.177Z,94.50
2018-05-14T03:30:19.490Z,94.80
2018-05-14T03:32:46.492Z,94.70
2018-05-14T03:35:12.746Z,95.00
2018-05-14T03:37:39.017Z,95.50
2018-05-14T03:40:05.967Z,95.70
2018-05-14T03:42:32.939Z,95.80
2018-05-14T03:44:59.189Z,96.00
2018-05-14T03:47:25.816Z,95.90
2018-05-14T03:49:51.996Z,95.60
2018-05-14T03:52:18.303Z,95.60
2018-05-14T03:54:44.554Z,95.80
2018-05-14T03:57:10.781Z,95.90
2018-05-14T03:59:49.556Z,96.00
2018-05-14T04:02:28.839Z,96.60
2018-05-14T04:05:07.185Z,96.30
2018-05-14T04:07:33.505Z,96.50
2018-05-14T04:09:59.731Z,96.50
2018-05-14T04:12:25.978Z,96.50
2018-05-14T04:14:52.267Z,96.50
2018-05-14T04:17:18.498Z,96.60
2018-05-14T04:19:44.755Z,96.80
2018-05-14T04:22:10.985Z,96.70
2018-05-14T04:24:37.248Z,96.70
2018-05-14T04:27:03.531Z,96.60
2018-05-14T04:29:30.530Z,96.90
2018-05-14T04:31:56.790Z,97.10
2018-05-14T04:34:23.090Z,97.00
2018-05-14T04:36:50.042Z,97.10
2018-05-14T04:39:16.290Z,97.00
2018-05-14T04:41:42.536Z,97.30
2018-05-14T04:44:08.875Z,97.20
2018-05-14T04:46:35.133Z,97.20
2018-05-14T04:49:02.134Z,97.20
2018-05-14T04:51:28.782Z,97.20
2018-05-14T04:53:55.001Z,97.20
2018-05-14T04:56:22.038Z,97.30
2018-05-14T04:58:49.016Z,97.60
2018-05-14T05:01:15.662Z,97.30
2018-05-14T05:03:41.905Z,97.30
2018-05-14T05:06:08.927Z,97.30
2018-05-14T05:08:35.899Z,97.70
2018-05-14T05:11:02.477Z,97.70
2018-05-14T05:13:29.482Z,97.80
2018-05-14T05:15:55.801Z,96.80
2018-05-14T05:18:22.771Z,96.40
2018-05-14T05:20:49.752Z,96.20
2018-05-14T05:23:15.988Z,96.40
2018-05-14T05:25:42.256Z,96.30
2018-05-14T05:28:08.965Z,96.10
2018-05-14T05:30:36.352Z,96.40
2018-05-14T05:33:02.602Z,96.20
2018-05-14T05:35:28.808Z,96.30
2018-05-14T05:37:55.075Z,96.40
2018-05-14T05:40:21.264Z,96.50
2018-05-14T05:42:47.512Z,95.80
2018-05-14T05:45:14.189Z,95.90
2018-05-14T05:47:40.408Z,95.70
2018-05-14T05:50:06.617Z,96.00
2018-05-14T05:52:32.936Z,96.20
2018-05-14T05:54:59.875Z,96.50
2018-05-14T05:57:26.857Z,96.80
2018-05-14T05:59:53.247Z,96.60
2018-05-14T06:02:19.476Z,96.40
2018-05-14T06:04:45.791Z,96.40
2018-05-14T06:07:12.411Z,96.80
2018-05-14T06:09:39.059Z,96.80
2018-05-14T06:12:05.661Z,96.70
2018-05-14T06:14:32.707Z,96.80
2018-05-14T06:16:59.246Z,96.40
2018-05-14T06:19:25.504Z,96.40
2018-05-14T06:21:52.501Z,96.70
2018-05-14T06:24:19.153Z,97.00
2018-05-14T06:26:45.342Z,96.90
2018-05-14T06:29:11.606Z,96.70
2018-05-14T06:31:37.813Z,97.00
2018-05-14T06:34:03.992Z,96.70
2018-05-14T06:36:30.300Z,96.80
2018-05-14T06:38:56.848Z,96.30
2018-05-14T06:41:23.092Z,96.30
2018-05-14T06:43:49.313Z,96.60
2018-05-14T06:46:15.587Z,96.40
2018-05-14T06:48:41.777Z,96.30
2018-05-14T06:51:08.030Z,96.30
2018-05-14T06:53:34.619Z,96.10
2018-05-14T06:56:00.894Z,96.20
2018-05-14T06:58:27.204Z,95.90
2018-05-14T07:00:53.737Z,95.60
2018-05-14T07:03:19.987Z,96.00
2018-05-14T07:05:46.967Z,96.30
2018-05-14T07:08:13.214Z,96.00
2018-05-14T07:10:39.433Z,96.40
2018-05-14T07:13:05.689Z,95.50
2018-05-14T07:15:32.699Z,95.80
2018-05-14T07:17:59.353Z,95.30
2018-05-14T07:20:25.588Z,95.40
2018-05-14T07:22:52.596Z,95.50
2018-05-14T07:25:18.816Z,95.40
2018-05-14T07:27:45.072Z,95.40
2018-05-14T07:30:11.747Z,95.40
2018-05-14T07:32:37.944Z,95.20
2018-05-14T07:35:04.292Z,95.80
2018-05-14T07:37:30.538Z,95.40
2018-05-14T07:39:58.303Z,95.50
2018-05-14T07:42:24.572Z,95.00
2018-05-14T07:44:50.828Z,94.50
2018-05-14T07:47:17.066Z,94.90
2018-05-14T07:49:43.328Z,95.40
2018-05-14T07:52:09.540Z,95.10
2018-05-14T07:54:36.909Z,95.50
2018-05-14T07:57:03.144Z,94.90
2018-05-14T07:59:30.147Z,94.70
2018-05-14T08:01:57.123Z,94.90
2018-05-14T08:04:23.344Z,95.00
2018-05-14T08:06:50.327Z,95.70
2018-05-14T08:09:16.617Z,95.60
2018-05-14T08:11:43.624Z,96.10
2018-05-14T08:14:10.589Z,96.40
2018-05-14T08:16:36.839Z,96.20
2018-05-14T08:19:03.880Z,96.90
2018-05-14T08:21:30.553Z,96.80
2018-05-14T08:23:56.831Z,96.80
2018-05-14T08:26:23.104Z,96.80
2018-05-14T08:28:50.809Z,97.10
2018-05-14T08:31:17.409Z,96.80
2018-05-14T08:33:44.408Z,96.80
2018-05-14T08:36:11.377Z,97.00
2018-05-14T08:38:37.607Z,96.50
2018-05-14T08:41:04.213Z,96.20
2018-05-14T08:43:31.007Z,96.30
2018-05-14T08:45:57.212Z,96.50
2018-05-14T08:48:24.190Z,96.70
2018-05-14T08:50:50.456Z,96.30
2018-05-14T08:53:16.705Z,96.50
2018-05-14T08:55:42.945Z,96.80
2018-05-14T08:58:09.160Z,96.80
2018-05-14T09:00:35.398Z,96.60
2018-05-14T09:03:01.660Z,96.70
2018-05-14T09:05:27.878Z,96.60
2018-05-14T09:07:54.198Z,96.40
2018-05-14T09:10:20.444Z,96.40
2018-05-14T09:12:47.399Z,96.40
2018-05-14T09:15:13.698Z,96.10
2018-05-14T09:17:40.328Z,96.20
2018-05-14T09:20:07.319Z,96.50
2018-05-14T09:22:33.957Z,96.20
2018-05-14T09:25:00.955Z,96.50
2018-05-14T09:27:27.181Z,96.50
2018-05-14T09:29:53.426Z,96.60
2018-05-14T09:32:19.726Z,96.80
2018-05-14T09:34:45.942Z,96.80
2018-05-14T09:37:12.258Z,97.20
2018-05-14T09:39:38.444Z,97.40
2018-05-14T09:42:05.424Z,97.70
2018-05-14T09:44:32.399Z,97.40
2018-05-14T09:46:59.688Z,97.70
2018-05-14T09:49:25.736Z,97.20
2018-05-14T09:51:51.959Z,97.30
2018-05-14T09:54:18.612Z,97.30
2018-05-14T09:56:44.834Z,97.70
2018-05-14T09:59:11.088Z,97.80
2018-05-14T10:01:37.280Z,97.90
2018-05-14T10:04:03.573Z,97.80
2018-05-14T10:06:29.811Z,98.10
2018-05-14T10:08:56.052Z,98.40
2018-05-14T10:11:22.699Z,98.30
2018-05-14T10:13:48.985Z,98.40
2018-05-14T10:16:15.567Z,98.50
2018-05-14T10:18:42.290Z,98.50
2018-05-14T10:21:08.439Z,98.40
2018-05-14T10:23:34.809Z,98.40
2018-05-14T10:26:01.454Z,98.30
2018-05-14T10:28:28.443Z,98.20
2018-05-14T10:30:55.094Z,97.90
2018-05-14T10:33:21.343Z,97.90
2018-05-14T10:35:47.575Z,97.70
2018-05-14T10:38:13.875Z,97.70
2018-05-14T10:40:40.950Z,98.50
2018-05-14T10:43:07.924Z,98.10
2018-05-14T10:45:34.923Z,97.50
2018-05-14T10:48:01.887Z,97.50
2018-05-14T10:50:28.124Z,97.10
2018-05-14T10:52:54.402Z,97.00
2018-05-14T10:55:20.679Z,97.00
2018-05-14T10:57:47.619Z,96.70
2018-05-14T11:00:13.923Z,96.70
2018-05-14T11:02:40.169Z,97.00
2018-05-14T11:05:06.423Z,96.70
2018-05-14T11:07:32.701Z,96.30
2018-05-14T11:09:58.948Z,96.40
2018-05-14T11:12:25.215Z,95.90
2018-05-14T11:14:51.463Z,95.80
2018-05-14T11:17:17.756Z,96.10
2018-05-14T11:19:43.984Z,96.40
2018-05-14T11:22:10.623Z,96.20
2018-05-14T11:24:37.246Z,96.50
2018-05-14T11:27:04.235Z,96.90
2018-05-14T11:29:30.463Z,96.90
2018-05-14T11:31:56.768Z,96.80
2018-05-14T11:34:23.773Z,96.50
2018-05-14T11:36:50.059Z,96.90
2018-05-14T11:39:17.035Z,97.10
2018-05-14T11:41:43.299Z,96.90
2018-05-14T11:44:09.585Z,97.00
2018-05-14T11:46:36.262Z,97.00
2018-05-14T11:49:02.543Z,97.10
2018-05-14T11:51:28.790Z,97.10
2018-05-14T11:53:55.093Z,97.10
2018-05-14T11:56:21.699Z,97.20
2018-05-14T11:58:47.955Z,97.00
2018-05-14T12:01:14.939Z,97.00
2018-05-14T12:03:41.199Z,97.10
2018-05-14T12:06:08.188Z,97.30
2018-05-14T12:08:35.330Z,96.60
2018-05-14T12:11:01.634Z,97.00
2018-05-14T12:13:27.903Z,96.80
2018-05-14T12:15:54.211Z,96.30
2018-05-14T12:18:20.819Z,96.10
2018-05-14T12:20:47.478Z,96.40
2018-05-14T12:23:14.093Z,96.50
2018-05-14T12:25:40.743Z,96.60
2018-05-14T12:28:06.989Z,96.70
2018-05-14T12:30:33.274Z,96.70
2018-05-14T12:33:00.258Z,96.80
2018-05-14T12:35:26.545Z,96.90
2018-05-14T12:37:53.189Z,97.00
2018-05-14T12:40:19.435Z,96.90
2018-05-14T12:42:46.065Z,96.80
2018-05-14T12:45:12.697Z,96.80
2018-05-14T12:47:38.975Z,96.80
2018-05-14T12:50:06.018Z,97.10
2018-05-14T12:52:33.003Z,97.10
2018-05-14T12:54:59.278Z,97.00
2018-05-14T12:57:25.589Z,97.30
2018-05-14T12:59:51.830Z,97.10
2018-05-14T13:02:18.180Z,97.30
2018-05-14T13:04:45.179Z,97.00
2018-05-14T13:07:11.865Z,97.10
2018-05-14T13:09:38.866Z,97.00
2018-05-14T13:12:05.864Z,97.30
2018-05-14T13:14:32.090Z,97.00
2018-05-14T13:16:58.427Z,96.30
2018-05-14T13:19:24.693Z,96.50
2018-05-14T13:21:50.971Z,96.50
2018-05-14T13:24:17.969Z,96.80
2018-05-14T13:26:45.026Z,96.70
2018-05-14T13:29:11.265Z,96.80
2018-05-14T13:31:37.515Z,97.00
2018-05-14T13:34:03.774Z,96.90
2018-05-14T13:36:30.804Z,97.10
2018-05-14T13:38:57.028Z,96.40
2018-05-14T13:41:23.355Z,96.30
2018-05-14T13:43:49.604Z,96.40
2018-05-14T13:46:15.901Z,96.80
2018-05-14T13:48:42.160Z,96.80
2018-05-14T13:51:08.445Z,95.70
2018-05-14T13:53:35.444Z,95.60
2018-05-14T13:56:02.237Z,96.00
2018-05-14T13:58:28.896Z,96.00
2018-05-14T14:00:55.869Z,96.30
2018-05-14T14:03:22.084Z,96.00
2018-05-14T14:05:50.051Z,94.70
2018-05-14T14:08:16.295Z,93.90
2018-05-14T14:10:43.284Z,94.90
2018-05-14T14:13:10.279Z,95.60
2018-05-14T14:15:36.602Z,95.50
2018-05-14T14:18:02.852Z,95.40
2018-05-14T14:20:29.142Z,95.70
2018-05-14T14:22:55.431Z,95.70
2018-05-14T14:25:21.694Z,95.70
2018-05-14T14:27:48.781Z,95.90
2018-05-14T14:30:15.573Z,95.80
2018-05-14T14:32:41.802Z,95.70
2018-05-14T14:35:09.035Z,95.80
2018-05-14T14:37:36.683Z,96.20
2018-05-14T14:40:03.015Z,96.20
2018-05-14T14:42:29.297Z,96.30
2018-05-14T14:44:55.625Z,96.60
2018-05-14T14:47:21.956Z,96.90
2018-05-14T14:49:48.199Z,96.40
2018-05-14T14:52:14.532Z,96.60
2018-05-14T14:54:40.765Z,96.60
2018-05-14T14:57:07.004Z,96.60
2018-05-14T14:59:33.300Z,96.80
2018-05-14T15:02:00.476Z,96.60
2018-05-14T15:04:27.875Z,97.20
2018-05-14T15:06:55.151Z,96.50
2018-05-14T15:09:21.396Z,96.60
2018-05-14T15:11:47.657Z,96.80
2018-05-14T15:14:13.954Z,96.60
2018-05-14T15:16:40.931Z,97.20
2018-05-14T15:19:07.221Z,97.20
2018-05-14T15:21:33.500Z,97.10
2018-05-14T15:23:59.906Z,97.20
2018-05-14T15:26:28.071Z,97.30
2018-05-14T15:28:54.354Z,97.30
2018-05-14T15:31:20.637Z,97.50
2018-05-14T15:33:47.329Z,97.70
2018-05-14T15:36:13.660Z,97.80
2018-05-14T15:38:40.332Z,98.00
2018-05-14T15:41:07.056Z,98.10
2018-05-14T15:43:34.088Z,98.60
2018-05-14T15:46:00.764Z,98.40
2018-05-14T15:48:27.060Z,98.50
2018-05-14T15:50:53.346Z,98.70
2018-05-14T15:53:19.621Z,98.70
2018-05-14T15:55:46.262Z,98.70
2018-05-14T15:58:12.540Z,98.90
2018-05-14T16:00:39.582Z,99.30
2018-05-14T16:03:05.922Z,98.80
2018-05-14T16:05:32.940Z,98.90
2018-05-14T16:07:59.242Z,98.10
2018-05-14T16:10:25.570Z,98.00
2018-05-14T16:12:51.864Z,98.00
2018-05-14T16:15:18.542Z,97.90
2018-05-14T16:17:45.527Z,98.10
2018-05-14T16:20:11.780Z,97.90
2018-05-14T16:22:38.054Z,98.00
2018-05-14T16:25:05.056Z,98.30
2018-05-14T16:27:31.340Z,97.50
2018-05-14T16:29:57.651Z,97.70
2018-05-14T16:32:23.919Z,97.60
2018-05-14T16:34:50.187Z,97.50
2018-05-14T16:37:16.456Z,97.50
2018-05-14T16:39:44.263Z,98.10
2018-05-14T16:42:10.902Z,97.90
2018-05-14T16:44:37.161Z,97.50
2018-05-14T16:47:03.405Z,97.00
2018-05-14T16:49:29.700Z,97.10
2018-05-14T16:51:56.376Z,97.20
2018-05-14T16:54:23.342Z,97.10
2018-05-14T16:56:49.778Z,97.10
2018-05-14T16:59:16.032Z,97.30
2018-05-14T17:01:42.260Z,97.30
2018-05-14T17:04:08.924Z,97.40
2018-05-14T17:06:35.056Z,97.40
2018-05-14T17:09:01.366Z,96.70
2018-05-14T17:11:28.662Z,96.90
2018-05-14T17:13:55.656Z,97.40
2018-05-14T17:16:22.727Z,97.00
2018-05-14T17:18:49.022Z,96.20
2018-05-14T17:21:15.267Z,96.30
2018-05-14T17:23:42.514Z,96.40
2018-05-14T17:26:08.800Z,96.40
2018-05-14T17:28:35.053Z,96.90
2018-05-14T17:31:01.390Z,97.00
2018-05-14T17:33:27.672Z,97.30
2018-05-14T17:35:53.914Z,97.40
2018-05-14T17:38:20.232Z,97.60
2018-05-14T17:40:46.516Z,97.80
2018-05-14T17:43:13.708Z,97.70
2018-05-14T17:45:40.007Z,97.80
2018-05-14T17:48:06.261Z,98.00
2018-05-14T17:50:32.577Z,98.10
2018-05-14T17:53:00.153Z,98.60
2018-05-14T17:55:26.791Z,98.50
2018-05-14T17:57:53.144Z,98.50
2018-05-14T18:00:20.155Z,98.70
2018-05-14T18:02:46.432Z,98.50
2018-05-14T18:05:13.116Z,98.50
2018-05-14T18:07:39.375Z,98.50
2018-05-14T18:10:06.065Z,98.80
2018-05-14T18:12:32.332Z,98.70
2018-05-14T18:14:58.602Z,98.80
2018-05-14T18:17:25.306Z,98.90
2018-05-14T18:19:58.404Z,99.30
2018-05-14T18:22:25.627Z,99.10
2018-05-14T18:27:58.262Z,99.30
2018-05-14T18:30:27.844Z,99.50
2018-05-14T18:33:00.850Z,99.90
2018-05-14T18:35:27.158Z,99.80
2018-05-14T18:37:53.447Z,99.80
2018-05-14T18:40:19.716Z,99.80
2018-05-14T18:42:45.959Z,99.90
2018-05-14T18:45:12.228Z,99.80
2018-05-14T18:47:38.473Z,99.70
2018-05-14T18:50:05.339Z,99.80
2018-05-14T18:52:31.586Z,99.70
2018-05-14T18:54:58.603Z,99.90
2018-05-14T18:57:24.872Z,99.80
2018-05-14T18:59:51.527Z,99.70
2018-05-14T19:02:18.166Z,99.80
2018-05-14T19:04:45.196Z,99.90
2018-05-14T19:07:12.976Z,99.90
2018-05-14T19:09:39.261Z,99.70
2018-05-14T19:12:05.551Z,99.70
2018-05-14T19:17:04.628Z,99.40
2018-05-14T19:19:30.823Z,99.40
2018-05-14T19:21:57.831Z,99.60
2018-05-14T19:24:24.092Z,99.30
2018-05-14T19:26:50.373Z,98.80
2018-05-14T19:29:22.900Z,98.80
2018-05-14T19:31:49.213Z,98.70
2018-05-14T19:34:21.492Z,98.70
2018-05-14T19:36:47.784Z,98.70
2018-05-14T19:39:20.072Z,98.90
2018-05-14T19:41:46.372Z,98.70
2018-05-14T19:44:13.029Z,98.80
2018-05-14T19:46:40.013Z,99.10
2018-05-14T19:49:06.308Z,98.80
2018-05-14T19:51:33.331Z,99.10
2018-05-14T19:53:59.597Z,98.80
2018-05-14T19:56:25.811Z,98.90
2018-05-14T19:58:52.141Z,98.90
2018-05-14T20:01:18.397Z,98.80
2018-05-14T20:03:46.113Z,98.90
2018-05-14T20:06:12.338Z,98.90
2018-05-14T20:08:42.021Z,98.90
2018-05-14T20:11:08.991Z,99.60
2018-05-14T20:13:36.912Z,99.30
2018-05-14T20:16:03.148Z,99.00
2018-05-14T20:18:29.389Z,99.00
2018-05-14T20:20:56.024Z,99.30
2018-05-14T20:23:22.317Z,99.10
2018-05-14T20:25:50.198Z,99.20
2018-05-14T20:28:17.682Z,99.20
2018-05-14T20:30:43.938Z,99.30
2018-05-14T20:33:10.653Z,99.20
2018-05-14T20:35:36.921Z,99.30
2018-05-14T20:38:03.167Z,99.30
2018-05-14T20:40:30.192Z,99.40
2018-05-14T20:42:57.092Z,99.80
2018-05-14T20:45:25.392Z,99.50
2018-05-14T20:47:52.738Z,99.70
2018-05-14T20:50:20.391Z,99.80
2018-05-14T20:52:46.927Z,99.50
2018-05-14T20:55:13.173Z,99.50
2018-05-14T20:57:39.802Z,99.50
2018-05-14T21:00:07.241Z,99.90
2018-05-14T21:02:34.888Z,99.70
2018-05-14T21:05:02.819Z,99.60
2018-05-14T21:07:29.902Z,99.70
2018-05-14T21:09:56.889Z,99.90
2018-05-14T21:12:23.703Z,99.70
2018-05-14T21:14:51.398Z,99.90
2018-05-14T21:17:19.151Z,99.60
2018-05-14T21:19:46.482Z,99.60
2018-05-14T21:22:13.274Z,99.60
2018-05-14T21:24:40.218Z,99.90
2018-05-14T21:27:09.216Z,99.60
2018-05-14T21:29:35.742Z,99.50
2018-05-14T21:32:02.573Z,99.40
2018-05-14T21:34:31.257Z,99.30
2018-05-14T21:36:57.561Z,99.40
2018-05-14T21:39:23.812Z,99.40
2018-05-14T21:41:50.001Z,99.50
2018-05-14T21:44:16.305Z,99.40
2018-05-14T21:46:44.156Z,99.70
2018-05-14T21:49:10.536Z,99.40
2018-05-14T21:51:37.251Z,99.40
2018-05-14T21:54:05.456Z,99.50
2018-05-14T21:56:33.176Z,99.50
2018-05-14T21:58:59.921Z,99.50
2018-05-14T22:01:26.152Z,99.40
2018-05-14T22:03:53.828Z,99.40
2018-05-14T22:06:20.052Z,99.10
2018-05-14T22:08:47.793Z,98.70
2018-05-14T22:11:14.096Z,98.40
2018-05-14T22:13:41.146Z,98.10
2018-05-14T22:16:08.352Z,98.10
2018-05-14T22:18:35.347Z,98.20
2018-05-14T22:21:01.591Z,98.20
2018-05-14T22:23:28.273Z,98.00
2018-05-14T22:25:55.531Z,98.00
2018-05-14T22:28:21.791Z,98.10
2018-05-14T22:30:48.044Z,98.10
2018-05-14T22:33:14.253Z,98.10
2018-05-14T22:35:42.309Z,98.30
2018-05-14T22:38:10.054Z,98.40
2018-05-14T22:40:36.658Z,98.10
2018-05-14T22:43:03.944Z,98.10
2018-05-14T22:45:30.232Z,98.00
2018-05-14T22:47:57.479Z,98.10
2018-05-14T22:50:23.792Z,98.10
2018-05-14T22:52:51.658Z,98.50
2018-05-14T22:55:17.931Z,98.20
2018-05-14T22:57:44.166Z,98.20
2018-05-14T23:00:11.051Z,98.30
2018-05-14T23:02:38.067Z,98.50
2018-05-14T23:05:04.672Z,98.30
2018-05-14T23:07:30.903Z,98.30
2018-05-14T23:09:57.164Z,98.20
2018-05-14T23:12:24.218Z,98.60
2018-05-14T23:14:51.248Z,98.70
2018-05-14T23:17:17.498Z,98.50
2018-05-14T23:19:43.759Z,98.50
2018-05-14T23:22:15.403Z,98.50
2018-05-14T23:24:42.388Z,98.50
2018-05-14T23:27:08.672Z,98.40
2018-05-14T23:29:34.903Z,98.40
2018-05-14T23:32:01.152Z,98.40
2018-05-14T23:34:27.407Z,98.30
2018-05-14T23:36:54.403Z,98.70
2018-05-14T23:39:20.694Z,98.30
2018-05-14T23:41:47.701Z,98.40
2018-05-14T23:44:13.987Z,98.00
2018-05-14T23:46:40.677Z,98.00
2018-05-14T23:49:06.940Z,97.90
2018-05-14T23:51:33.217Z,97.80
2018-05-14T23:53:59.483Z,98.00
2018-05-14T23:56:25.684Z,98.30
2018-05-14T23:58:52.312Z,98.40
